sensor_id;sensor_type;location;lat;lon;timestamp;P1;durP1;ratioP1;P2;durP2;ratioP2
18286;SDS011;9269;50.838;12.094;2023-09-07T00:01:48;6.53;;;5.93;;
18286;SDS011;9269;50.838;12.094;2023-09-07T00:04:22;7.53;;;5.80;;
18286;SDS011;9269;50.838;12.094;2023-09-07T00:06:50;7.70;;;6.20;;
18286;SDS011;9269;50.838;12.094;2023-09-07T00:09:19;6.03;;;5.40;;
18286;SDS011;9269;50.838;12.094;2023-09-07T00:11:49;6.17;;;5.57;;
18286;SDS011;9269;50.838;12.094;2023-09-07T00:14:17;7.00;;;6.20;;
18286;SDS011;9269;50.838;12.094;2023-09-07T00:16:45;6.43;;;5.80;;
18286;SDS011;9269;50.838;12.094;2023-09-07T00:19:14;9.20;;;6.23;;
18286;SDS011;9269;50.838;12.094;2023-09-07T00:21:44;6.77;;;5.47;;
18286;SDS011;9269;50.838;12.094;2023-09-07T00:24:13;6.23;;;5.63;;
18286;SDS011;9269;50.838;12.094;2023-09-07T00:26:43;6.83;;;6.23;;
18286;SDS011;9269;50.838;12.094;2023-09-07T00:29:25;7.70;;;5.57;;
18286;SDS011;9269;50.838;12.094;2023-09-07T00:31:59;7.53;;;5.57;;
18286;SDS011;9269;50.838;12.094;2023-09-07T00:34:28;6.87;;;6.27;;
18286;SDS011;9269;50.838;12.094;2023-09-07T00:37:00;7.93;;;7.13;;
18286;SDS011;9269;50.838;12.094;2023-09-07T00:39:28;8.70;;;6.93;;
18286;SDS011;9269;50.838;12.094;2023-09-07T00:41:57;9.47;;;6.80;;
18286;SDS011;9269;50.838;12.094;2023-09-07T00:44:25;8.10;;;7.07;;
18286;SDS011;9269;50.838;12.094;2023-09-07T00:46:54;8.00;;;7.20;;
18286;SDS011;9269;50.838;12.094;2023-09-07T00:49:24;7.43;;;6.73;;
18286;SDS011;9269;50.838;12.094;2023-09-07T00:51:53;7.23;;;6.53;;
18286;SDS011;9269;50.838;12.094;2023-09-07T00:54:23;7.43;;;6.63;;
18286;SDS011;9269;50.838;12.094;2023-09-07T00:56:52;7.77;;;6.97;;
18286;SDS011;9269;50.838;12.094;2023-09-07T00:59:20;7.33;;;6.63;;
18286;SDS011;9269;50.838;12.094;2023-09-07T01:01:55;7.80;;;6.87;;
18286;SDS011;9269;50.838;12.094;2023-09-07T01:04:24;8.43;;;7.57;;
18286;SDS011;9269;50.838;12.094;2023-09-07T01:06:55;8.60;;;7.70;;
18286;SDS011;9269;50.838;12.094;2023-09-07T01:09:29;9.97;;;8.07;;
18286;SDS011;9269;50.838;12.094;2023-09-07T01:12:00;8.67;;;7.77;;
18286;SDS011;9269;50.838;12.094;2023-09-07T01:14:28;9.13;;;7.80;;
18286;SDS011;9269;50.838;12.094;2023-09-07T01:16:57;8.10;;;7.30;;
18286;SDS011;9269;50.838;12.094;2023-09-07T01:19:25;7.80;;;7.10;;
18286;SDS011;9269;50.838;12.094;2023-09-07T01:21:55;7.60;;;6.90;;
18286;SDS011;9269;50.838;12.094;2023-09-07T01:24:27;7.73;;;7.03;;
18286;SDS011;9269;50.838;12.094;2023-09-07T01:27:04;7.80;;;6.40;;
18286;SDS011;9269;50.838;12.094;2023-09-07T01:29:33;7.40;;;6.77;;
18286;SDS011;9269;50.838;12.094;2023-09-07T01:32:05;7.20;;;6.60;;
18286;SDS011;9269;50.838;12.094;2023-09-07T01:34:36;6.40;;;5.80;;
18286;SDS011;9269;50.838;12.094;2023-09-07T01:37:09;7.80;;;7.10;;
18286;SDS011;9269;50.838;12.094;2023-09-07T01:39:37;7.23;;;6.53;;
18286;SDS011;9269;50.838;12.094;2023-09-07T01:42:13;7.20;;;6.50;;
18286;SDS011;9269;50.838;12.094;2023-09-07T01:44:41;7.30;;;6.60;;
18286;SDS011;9269;50.838;12.094;2023-09-07T01:47:10;8.80;;;6.53;;
18286;SDS011;9269;50.838;12.094;2023-09-07T01:49:39;7.13;;;6.53;;
18286;SDS011;9269;50.838;12.094;2023-09-07T01:52:09;7.53;;;6.73;;
18286;SDS011;9269;50.838;12.094;2023-09-07T01:54:37;7.50;;;6.80;;
18286;SDS011;9269;50.838;12.094;2023-09-07T01:57:06;8.17;;;6.57;;
18286;SDS011;9269;50.838;12.094;2023-09-07T01:59:34;7.20;;;6.50;;
18286;SDS011;9269;50.838;12.094;2023-09-07T02:02:03;8.97;;;6.90;;
18286;SDS011;9269;50.838;12.094;2023-09-07T02:04:31;11.13;;;7.10;;
18286;SDS011;9269;50.838;12.094;2023-09-07T02:07:01;8.87;;;6.57;;
18286;SDS011;9269;50.838;12.094;2023-09-07T02:09:32;10.53;;;7.73;;
18286;SDS011;9269;50.838;12.094;2023-09-07T02:12:01;9.70;;;6.60;;
18286;SDS011;9269;50.838;12.094;2023-09-07T02:14:31;10.40;;;8.00;;
18286;SDS011;9269;50.838;12.094;2023-09-07T02:16:59;10.17;;;7.20;;
18286;SDS011;9269;50.838;12.094;2023-09-07T02:19:47;15.60;;;9.27;;
18286;SDS011;9269;50.838;12.094;2023-09-07T02:22:17;12.40;;;7.73;;
18286;SDS011;9269;50.838;12.094;2023-09-07T02:24:47;10.33;;;7.50;;
18286;SDS011;9269;50.838;12.094;2023-09-07T02:27:15;10.83;;;7.43;;
18286;SDS011;9269;50.838;12.094;2023-09-07T02:29:44;14.47;;;8.60;;
18286;SDS011;9269;50.838;12.094;2023-09-07T02:32:12;10.33;;;8.37;;
18286;SDS011;9269;50.838;12.094;2023-09-07T02:34:41;10.30;;;8.73;;
18286;SDS011;9269;50.838;12.094;2023-09-07T02:37:09;11.23;;;9.03;;
18286;SDS011;9269;50.838;12.094;2023-09-07T02:39:38;11.53;;;8.47;;
18286;SDS011;9269;50.838;12.094;2023-09-07T02:42:08;11.57;;;8.87;;
18286;SDS011;9269;50.838;12.094;2023-09-07T02:44:36;15.13;;;9.97;;
18286;SDS011;9269;50.838;12.094;2023-09-07T02:47:06;15.77;;;8.90;;
18286;SDS011;9269;50.838;12.094;2023-09-07T02:53:21;9.23;;;7.87;;
18286;SDS011;9269;50.838;12.094;2023-09-07T02:55:49;8.60;;;7.80;;
18286;SDS011;9269;50.838;12.094;2023-09-07T02:58:19;9.87;;;7.67;;
18286;SDS011;9269;50.838;12.094;2023-09-07T03:00:48;9.07;;;8.17;;
18286;SDS011;9269;50.838;12.094;2023-09-07T03:03:16;9.20;;;8.30;;
18286;SDS011;9269;50.838;12.094;2023-09-07T03:05:45;9.13;;;8.23;;
18286;SDS011;9269;50.838;12.094;2023-09-07T03:08:14;8.30;;;7.60;;
18286;SDS011;9269;50.838;12.094;2023-09-07T03:10:42;8.73;;;7.83;;
18286;SDS011;9269;50.838;12.094;2023-09-07T03:13:11;8.47;;;7.67;;
18286;SDS011;9269;50.838;12.094;2023-09-07T03:15:41;8.10;;;7.30;;
18286;SDS011;9269;50.838;12.094;2023-09-07T03:18:09;8.00;;;7.20;;
18286;SDS011;9269;50.838;12.094;2023-09-07T03:20:38;8.73;;;7.83;;
18286;SDS011;9269;50.838;12.094;2023-09-07T03:23:07;8.33;;;7.53;;
18286;SDS011;9269;50.838;12.094;2023-09-07T03:25:35;8.87;;;8.07;;
18286;SDS011;9269;50.838;12.094;2023-09-07T03:28:04;8.13;;;7.43;;
18286;SDS011;9269;50.838;12.094;2023-09-07T03:30:33;9.00;;;8.20;;
18286;SDS011;9269;50.838;12.094;2023-09-07T03:33:04;8.80;;;7.90;;
18286;SDS011;9269;50.838;12.094;2023-09-07T03:35:32;8.90;;;8.00;;
18286;SDS011;9269;50.838;12.094;2023-09-07T03:38:02;8.60;;;7.80;;
18286;SDS011;9269;50.838;12.094;2023-09-07T03:40:31;8.10;;;7.30;;
18286;SDS011;9269;50.838;12.094;2023-09-07T03:42:59;9.13;;;8.03;;
18286;SDS011;9269;50.838;12.094;2023-09-07T03:45:28;8.07;;;7.27;;
18286;SDS011;9269;50.838;12.094;2023-09-07T03:47:57;9.37;;;7.50;;
18286;SDS011;9269;50.838;12.094;2023-09-07T03:50:27;8.13;;;7.33;;
18286;SDS011;9269;50.838;12.094;2023-09-07T03:52:56;7.70;;;7.03;;
18286;SDS011;9269;50.838;12.094;2023-09-07T03:55:25;8.30;;;7.60;;
18286;SDS011;9269;50.838;12.094;2023-09-07T03:57:54;8.93;;;8.20;;
18286;SDS011;9269;50.838;12.094;2023-09-07T04:00:23;8.67;;;7.87;;
18286;SDS011;9269;50.838;12.094;2023-09-07T04:02:51;9.00;;;8.20;;
18286;SDS011;9269;50.838;12.094;2023-09-07T04:05:21;8.47;;;7.57;;
18286;SDS011;9269;50.838;12.094;2023-09-07T04:07:51;8.97;;;8.10;;
18286;SDS011;9269;50.838;12.094;2023-09-07T04:10:20;8.47;;;7.60;;
18286;SDS011;9269;50.838;12.094;2023-09-07T04:12:49;7.97;;;7.20;;
18286;SDS011;9269;50.838;12.094;2023-09-07T04:15:17;8.47;;;7.63;;
18286;SDS011;9269;50.838;12.094;2023-09-07T04:17:46;8.07;;;7.27;;
18286;SDS011;9269;50.838;12.094;2023-09-07T04:20:15;7.83;;;7.13;;
18286;SDS011;9269;50.838;12.094;2023-09-07T04:22:43;7.87;;;7.07;;
18286;SDS011;9269;50.838;12.094;2023-09-07T04:25:14;7.90;;;7.20;;
18286;SDS011;9269;50.838;12.094;2023-09-07T04:27:42;8.10;;;7.40;;
18286;SDS011;9269;50.838;12.094;2023-09-07T04:30:11;7.80;;;7.10;;
18286;SDS011;9269;50.838;12.094;2023-09-07T04:32:39;7.73;;;7.03;;
18286;SDS011;9269;50.838;12.094;2023-09-07T04:35:08;7.67;;;6.90;;
18286;SDS011;9269;50.838;12.094;2023-09-07T04:37:37;8.00;;;7.20;;
18286;SDS011;9269;50.838;12.094;2023-09-07T04:40:06;8.03;;;7.33;;
18286;SDS011;9269;50.838;12.094;2023-09-07T04:42:36;7.77;;;7.10;;
18286;SDS011;9269;50.838;12.094;2023-09-07T04:45:06;8.67;;;7.97;;
18286;SDS011;9269;50.838;12.094;2023-09-07T04:47:35;8.37;;;7.60;;
18286;SDS011;9269;50.838;12.094;2023-09-07T04:50:05;8.77;;;7.90;;
18286;SDS011;9269;50.838;12.094;2023-09-07T04:52:34;9.43;;;8.53;;
18286;SDS011;9269;50.838;12.094;2023-09-07T04:55:03;9.03;;;8.13;;
18286;SDS011;9269;50.838;12.094;2023-09-07T04:57:32;9.03;;;8.13;;
18286;SDS011;9269;50.838;12.094;2023-09-07T05:00:02;8.10;;;7.40;;
18286;SDS011;9269;50.838;12.094;2023-09-07T05:02:32;9.37;;;8.37;;
18286;SDS011;9269;50.838;12.094;2023-09-07T05:05:05;9.50;;;8.60;;
18286;SDS011;9269;50.838;12.094;2023-09-07T05:07:34;9.67;;;8.77;;
18286;SDS011;9269;50.838;12.094;2023-09-07T05:10:03;8.53;;;7.73;;
18286;SDS011;9269;50.838;12.094;2023-09-07T05:12:33;8.37;;;7.57;;
18286;SDS011;9269;50.838;12.094;2023-09-07T05:15:04;9.57;;;7.80;;
18286;SDS011;9269;50.838;12.094;2023-09-07T05:17:35;9.90;;;8.30;;
18286;SDS011;9269;50.838;12.094;2023-09-07T05:20:05;8.20;;;7.50;;
18286;SDS011;9269;50.838;12.094;2023-09-07T05:22:39;8.40;;;7.30;;
18286;SDS011;9269;50.838;12.094;2023-09-07T05:25:08;9.13;;;8.23;;
18286;SDS011;9269;50.838;12.094;2023-09-07T05:27:39;9.13;;;8.33;;
18286;SDS011;9269;50.838;12.094;2023-09-07T05:30:09;8.50;;;7.70;;
18286;SDS011;9269;50.838;12.094;2023-09-07T05:32:38;8.23;;;7.53;;
18286;SDS011;9269;50.838;12.094;2023-09-07T05:35:08;8.27;;;7.47;;
18286;SDS011;9269;50.838;12.094;2023-09-07T05:37:39;8.47;;;7.77;;
18286;SDS011;9269;50.838;12.094;2023-09-07T05:40:07;9.07;;;8.10;;
18286;SDS011;9269;50.838;12.094;2023-09-07T05:42:38;9.83;;;8.77;;
18286;SDS011;9269;50.838;12.094;2023-09-07T05:45:09;9.17;;;8.27;;
18286;SDS011;9269;50.838;12.094;2023-09-07T05:47:38;8.10;;;7.30;;
18286;SDS011;9269;50.838;12.094;2023-09-07T05:50:07;9.63;;;8.70;;
18286;SDS011;9269;50.838;12.094;2023-09-07T05:52:36;9.83;;;8.37;;
18286;SDS011;9269;50.838;12.094;2023-09-07T05:55:06;11.03;;;9.23;;
18286;SDS011;9269;50.838;12.094;2023-09-07T05:57:35;9.97;;;9.07;;
18286;SDS011;9269;50.838;12.094;2023-09-07T06:00:05;10.50;;;9.60;;
18286;SDS011;9269;50.838;12.094;2023-09-07T06:02:38;13.37;;;10.80;;
18286;SDS011;9269;50.838;12.094;2023-09-07T06:05:07;9.10;;;8.20;;
18286;SDS011;9269;50.838;12.094;2023-09-07T06:07:37;10.40;;;9.30;;
18286;SDS011;9269;50.838;12.094;2023-09-07T06:10:06;10.03;;;8.40;;
18286;SDS011;9269;50.838;12.094;2023-09-07T06:12:36;11.93;;;9.47;;
18286;SDS011;9269;50.838;12.094;2023-09-07T06:15:07;10.53;;;9.47;;
18286;SDS011;9269;50.838;12.094;2023-09-07T06:17:40;12.63;;;11.33;;
18286;SDS011;9269;50.838;12.094;2023-09-07T06:20:11;15.13;;;11.80;;
18286;SDS011;9269;50.838;12.094;2023-09-07T06:22:40;10.50;;;9.40;;
18286;SDS011;9269;50.838;12.094;2023-09-07T06:25:08;9.63;;;8.50;;
18286;SDS011;9269;50.838;12.094;2023-09-07T06:27:37;8.67;;;7.77;;
18286;SDS011;9269;50.838;12.094;2023-09-07T06:30:06;10.07;;;7.90;;
18286;SDS011;9269;50.838;12.094;2023-09-07T06:32:35;8.63;;;7.83;;
18286;SDS011;9269;50.838;12.094;2023-09-07T06:35:07;8.63;;;7.80;;
18286;SDS011;9269;50.838;12.094;2023-09-07T06:37:37;8.33;;;7.27;;
18286;SDS011;9269;50.838;12.094;2023-09-07T06:40:08;7.87;;;7.10;;
18286;SDS011;9269;50.838;12.094;2023-09-07T06:42:38;7.33;;;6.63;;
18286;SDS011;9269;50.838;12.094;2023-09-07T06:45:07;8.17;;;7.30;;
18286;SDS011;9269;50.838;12.094;2023-09-07T06:47:37;7.13;;;6.43;;
18286;SDS011;9269;50.838;12.094;2023-09-07T06:50:08;7.40;;;6.80;;
18286;SDS011;9269;50.838;12.094;2023-09-07T06:52:38;7.33;;;6.63;;
18286;SDS011;9269;50.838;12.094;2023-09-07T06:55:07;8.47;;;6.93;;
18286;SDS011;9269;50.838;12.094;2023-09-07T06:57:36;7.50;;;6.80;;
18286;SDS011;9269;50.838;12.094;2023-09-07T07:00:07;7.90;;;6.97;;
18286;SDS011;9269;50.838;12.094;2023-09-07T07:02:37;8.60;;;7.80;;
18286;SDS011;9269;50.838;12.094;2023-09-07T07:05:08;7.43;;;6.83;;
18286;SDS011;9269;50.838;12.094;2023-09-07T07:07:38;7.97;;;6.30;;
18286;SDS011;9269;50.838;12.094;2023-09-07T07:10:07;6.63;;;6.13;;
18286;SDS011;9269;50.838;12.094;2023-09-07T07:12:41;7.23;;;6.63;;
18286;SDS011;9269;50.838;12.094;2023-09-07T07:15:09;7.27;;;6.57;;
18286;SDS011;9269;50.838;12.094;2023-09-07T07:17:38;8.07;;;6.57;;
18286;SDS011;9269;50.838;12.094;2023-09-07T07:20:09;7.30;;;6.60;;
18286;SDS011;9269;50.838;12.094;2023-09-07T07:22:38;6.83;;;5.83;;
18286;SDS011;9269;50.838;12.094;2023-09-07T07:25:07;6.37;;;5.87;;
18286;SDS011;9269;50.838;12.094;2023-09-07T07:27:37;6.57;;;5.97;;
18286;SDS011;9269;50.838;12.094;2023-09-07T07:30:08;7.70;;;7.00;;
18286;SDS011;9269;50.838;12.094;2023-09-07T07:32:37;6.50;;;5.90;;
18286;SDS011;9269;50.838;12.094;2023-09-07T07:35:06;6.50;;;6.00;;
18286;SDS011;9269;50.838;12.094;2023-09-07T07:37:37;10.27;;;8.17;;
18286;SDS011;9269;50.838;12.094;2023-09-07T07:40:07;8.33;;;7.53;;
18286;SDS011;9269;50.838;12.094;2023-09-07T07:42:36;8.63;;;7.83;;
18286;SDS011;9269;50.838;12.094;2023-09-07T07:45:05;11.43;;;8.10;;
18286;SDS011;9269;50.838;12.094;2023-09-07T07:47:37;9.63;;;7.80;;
18286;SDS011;9269;50.838;12.094;2023-09-07T07:50:14;9.90;;;8.90;;
18286;SDS011;9269;50.838;12.094;2023-09-07T07:52:44;8.40;;;7.70;;
18286;SDS011;9269;50.838;12.094;2023-09-07T07:55:13;8.77;;;7.87;;
18286;SDS011;9269;50.838;12.094;2023-09-07T07:57:42;9.00;;;8.20;;
18286;SDS011;9269;50.838;12.094;2023-09-07T08:00:11;8.73;;;7.93;;
18286;SDS011;9269;50.838;12.094;2023-09-07T08:02:40;8.50;;;7.60;;
18286;SDS011;9269;50.838;12.094;2023-09-07T08:05:10;9.77;;;7.53;;
18286;SDS011;9269;50.838;12.094;2023-09-07T08:07:40;8.97;;;8.00;;
18286;SDS011;9269;50.838;12.094;2023-09-07T08:10:09;8.33;;;7.53;;
18286;SDS011;9269;50.838;12.094;2023-09-07T08:12:38;7.53;;;6.90;;
18286;SDS011;9269;50.838;12.094;2023-09-07T08:15:06;8.73;;;7.83;;
18286;SDS011;9269;50.838;12.094;2023-09-07T08:17:35;9.73;;;6.83;;
18286;SDS011;9269;50.838;12.094;2023-09-07T08:20:05;8.10;;;7.40;;
18286;SDS011;9269;50.838;12.094;2023-09-07T08:22:38;9.03;;;7.73;;
18286;SDS011;9269;50.838;12.094;2023-09-07T08:25:11;9.40;;;8.50;;
18286;SDS011;9269;50.838;12.094;2023-09-07T08:27:42;7.60;;;6.93;;
18286;SDS011;9269;50.838;12.094;2023-09-07T08:30:14;7.73;;;7.03;;
18286;SDS011;9269;50.838;12.094;2023-09-07T08:32:44;7.53;;;6.73;;
18286;SDS011;9269;50.838;12.094;2023-09-07T08:35:14;8.40;;;7.60;;
18286;SDS011;9269;50.838;12.094;2023-09-07T08:37:44;7.63;;;6.57;;
18286;SDS011;9269;50.838;12.094;2023-09-07T08:40:14;7.00;;;6.30;;
18286;SDS011;9269;50.838;12.094;2023-09-07T08:42:44;7.33;;;6.50;;
18286;SDS011;9269;50.838;12.094;2023-09-07T08:45:13;8.00;;;7.30;;
18286;SDS011;9269;50.838;12.094;2023-09-07T08:47:47;7.63;;;6.53;;
18286;SDS011;9269;50.838;12.094;2023-09-07T08:50:19;8.57;;;7.87;;
18286;SDS011;9269;50.838;12.094;2023-09-07T08:52:50;7.63;;;6.87;;
18286;SDS011;9269;50.838;12.094;2023-09-07T08:55:21;8.30;;;7.47;;
18286;SDS011;9269;50.838;12.094;2023-09-07T08:57:52;6.63;;;6.10;;
18286;SDS011;9269;50.838;12.094;2023-09-07T09:00:20;7.80;;;7.03;;
18286;SDS011;9269;50.838;12.094;2023-09-07T09:02:50;7.00;;;6.37;;
18286;SDS011;9269;50.838;12.094;2023-09-07T09:05:23;6.83;;;6.20;;
18286;SDS011;9269;50.838;12.094;2023-09-07T09:08:00;6.80;;;6.20;;
18286;SDS011;9269;50.838;12.094;2023-09-07T09:10:32;6.67;;;6.07;;
18286;SDS011;9269;50.838;12.094;2023-09-07T09:13:00;6.83;;;6.23;;
18286;SDS011;9269;50.838;12.094;2023-09-07T09:15:30;7.17;;;6.57;;
18286;SDS011;9269;50.838;12.094;2023-09-07T09:18:08;6.63;;;6.03;;
18286;SDS011;9269;50.838;12.094;2023-09-07T09:20:39;6.13;;;5.53;;
18286;SDS011;9269;50.838;12.094;2023-09-07T09:23:07;7.10;;;6.60;;
18286;SDS011;9269;50.838;12.094;2023-09-07T09:25:37;7.60;;;6.77;;
18286;SDS011;9269;50.838;12.094;2023-09-07T09:28:23;7.47;;;6.77;;
18286;SDS011;9269;50.838;12.094;2023-09-07T09:30:54;7.13;;;6.43;;
18286;SDS011;9269;50.838;12.094;2023-09-07T09:33:23;7.50;;;6.90;;
18286;SDS011;9269;50.838;12.094;2023-09-07T09:35:53;7.70;;;7.00;;
18286;SDS011;9269;50.838;12.094;2023-09-07T09:38:22;6.87;;;6.27;;
18286;SDS011;9269;50.838;12.094;2023-09-07T09:40:55;5.83;;;5.23;;
18286;SDS011;9269;50.838;12.094;2023-09-07T09:43:25;7.43;;;6.67;;
18286;SDS011;9269;50.838;12.094;2023-09-07T09:46:14;6.43;;;5.83;;
18286;SDS011;9269;50.838;12.094;2023-09-07T09:48:44;5.83;;;5.33;;
18286;SDS011;9269;50.838;12.094;2023-09-07T09:51:28;6.03;;;5.13;;
18286;SDS011;9269;50.838;12.094;2023-09-07T09:54:10;5.60;;;5.10;;
18286;SDS011;9269;50.838;12.094;2023-09-07T09:56:45;5.03;;;4.63;;
18286;SDS011;9269;50.838;12.094;2023-09-07T09:59:14;5.23;;;4.83;;
18286;SDS011;9269;50.838;12.094;2023-09-07T10:01:46;4.93;;;4.40;;
18286;SDS011;9269;50.838;12.094;2023-09-07T10:04:17;4.87;;;4.40;;
18286;SDS011;9269;50.838;12.094;2023-09-07T10:06:50;4.90;;;4.50;;
18286;SDS011;9269;50.838;12.094;2023-09-07T10:09:23;4.83;;;4.33;;
18286;SDS011;9269;50.838;12.094;2023-09-07T10:11:58;5.23;;;4.17;;
18286;SDS011;9269;50.838;12.094;2023-09-07T10:14:37;4.23;;;3.93;;
18286;SDS011;9269;50.838;12.094;2023-09-07T10:17:06;5.47;;;4.97;;
18286;SDS011;9269;50.838;12.094;2023-09-07T10:19:37;5.00;;;4.60;;
18286;SDS011;9269;50.838;12.094;2023-09-07T10:22:11;4.73;;;4.33;;
18286;SDS011;9269;50.838;12.094;2023-09-07T10:24:56;5.40;;;5.00;;
18286;SDS011;9269;50.838;12.094;2023-09-07T10:27:26;5.10;;;4.60;;
18286;SDS011;9269;50.838;12.094;2023-09-07T10:30:09;4.20;;;3.90;;
18286;SDS011;9269;50.838;12.094;2023-09-07T10:32:39;5.10;;;4.67;;
18286;SDS011;9269;50.838;12.094;2023-09-07T10:35:12;6.13;;;3.97;;
18286;SDS011;9269;50.838;12.094;2023-09-07T10:37:44;4.83;;;4.40;;
18286;SDS011;9269;50.838;12.094;2023-09-07T10:40:18;4.70;;;4.30;;
18286;SDS011;9269;50.838;12.094;2023-09-07T10:42:49;5.00;;;4.50;;
18286;SDS011;9269;50.838;12.094;2023-09-07T10:45:29;4.87;;;4.40;;
18286;SDS011;9269;50.838;12.094;2023-09-07T10:47:59;4.43;;;4.13;;
18286;SDS011;9269;50.838;12.094;2023-09-07T10:50:28;5.20;;;4.63;;
18286;SDS011;9269;50.838;12.094;2023-09-07T10:52:56;4.97;;;4.50;;
18286;SDS011;9269;50.838;12.094;2023-09-07T10:55:25;4.60;;;4.20;;
18286;SDS011;9269;50.838;12.094;2023-09-07T10:57:56;4.43;;;4.03;;
18286;SDS011;9269;50.838;12.094;2023-09-07T11:00:24;4.67;;;4.37;;
18286;SDS011;9269;50.838;12.094;2023-09-07T11:02:53;4.50;;;4.10;;
18286;SDS011;9269;50.838;12.094;2023-09-07T11:05:22;4.40;;;3.73;;
18286;SDS011;9269;50.838;12.094;2023-09-07T11:07:51;4.37;;;4.03;;
18286;SDS011;9269;50.838;12.094;2023-09-07T11:10:22;4.77;;;4.37;;
18286;SDS011;9269;50.838;12.094;2023-09-07T11:12:51;5.70;;;4.50;;
18286;SDS011;9269;50.838;12.094;2023-09-07T11:15:21;4.87;;;4.47;;
18286;SDS011;9269;50.838;12.094;2023-09-07T11:17:50;5.80;;;4.90;;
18286;SDS011;9269;50.838;12.094;2023-09-07T11:20:20;4.57;;;4.27;;
18286;SDS011;9269;50.838;12.094;2023-09-07T11:22:49;5.10;;;4.63;;
18286;SDS011;9269;50.838;12.094;2023-09-07T11:25:35;4.87;;;4.47;;
18286;SDS011;9269;50.838;12.094;2023-09-07T11:28:05;4.77;;;4.47;;
18286;SDS011;9269;50.838;12.094;2023-09-07T11:30:36;4.40;;;4.10;;
18286;SDS011;9269;50.838;12.094;2023-09-07T11:33:06;4.23;;;3.83;;
18286;SDS011;9269;50.838;12.094;2023-09-07T11:35:36;4.13;;;3.83;;
18286;SDS011;9269;50.838;12.094;2023-09-07T11:38:28;5.30;;;4.80;;
18286;SDS011;9269;50.838;12.094;2023-09-07T11:40:57;5.27;;;4.77;;
18286;SDS011;9269;50.838;12.094;2023-09-07T11:43:26;4.93;;;4.53;;
18286;SDS011;9269;50.838;12.094;2023-09-07T11:45:56;4.90;;;4.50;;
18286;SDS011;9269;50.838;12.094;2023-09-07T11:48:25;4.73;;;4.33;;
18286;SDS011;9269;50.838;12.094;2023-09-07T11:50:55;4.50;;;4.20;;
18286;SDS011;9269;50.838;12.094;2023-09-07T11:53:24;5.70;;;4.53;;
18286;SDS011;9269;50.838;12.094;2023-09-07T11:55:54;6.57;;;4.80;;
18286;SDS011;9269;50.838;12.094;2023-09-07T11:58:24;4.63;;;4.23;;
18286;SDS011;9269;50.838;12.094;2023-09-07T12:00:58;4.87;;;4.20;;
18286;SDS011;9269;50.838;12.094;2023-09-07T12:03:27;4.53;;;4.20;;
18286;SDS011;9269;50.838;12.094;2023-09-07T12:05:58;3.90;;;3.60;;
18286;SDS011;9269;50.838;12.094;2023-09-07T12:08:27;4.33;;;3.43;;
18286;SDS011;9269;50.838;12.094;2023-09-07T12:10:56;4.57;;;3.80;;
18286;SDS011;9269;50.838;12.094;2023-09-07T12:13:24;4.07;;;3.77;;
18286;SDS011;9269;50.838;12.094;2023-09-07T12:15:53;3.67;;;3.37;;
18286;SDS011;9269;50.838;12.094;2023-09-07T12:18:24;3.77;;;3.47;;
18286;SDS011;9269;50.838;12.094;2023-09-07T12:20:53;3.83;;;3.53;;
18286;SDS011;9269;50.838;12.094;2023-09-07T12:23:23;4.03;;;3.70;;
18286;SDS011;9269;50.838;12.094;2023-09-07T12:25:51;3.87;;;3.57;;
18286;SDS011;9269;50.838;12.094;2023-09-07T12:28:21;3.67;;;3.43;;
18286;SDS011;9269;50.838;12.094;2023-09-07T12:30:50;3.93;;;3.70;;
18286;SDS011;9269;50.838;12.094;2023-09-07T12:33:19;4.50;;;3.50;;
18286;SDS011;9269;50.838;12.094;2023-09-07T12:35:50;3.90;;;3.60;;
18286;SDS011;9269;50.838;12.094;2023-09-07T12:38:19;4.20;;;3.80;;
18286;SDS011;9269;50.838;12.094;2023-09-07T12:40:52;4.10;;;3.70;;
18286;SDS011;9269;50.838;12.094;2023-09-07T12:43:21;4.00;;;3.70;;
18286;SDS011;9269;50.838;12.094;2023-09-07T12:45:52;3.83;;;3.53;;
18286;SDS011;9269;50.838;12.094;2023-09-07T12:48:21;3.57;;;3.27;;
18286;SDS011;9269;50.838;12.094;2023-09-07T12:50:51;3.40;;;3.20;;
18286;SDS011;9269;50.838;12.094;2023-09-07T12:53:20;4.73;;;4.00;;
18286;SDS011;9269;50.838;12.094;2023-09-07T12:55:52;3.70;;;3.40;;
18286;SDS011;9269;50.838;12.094;2023-09-07T12:58:21;4.00;;;3.20;;
18286;SDS011;9269;50.838;12.094;2023-09-07T13:00:49;3.83;;;3.53;;
18286;SDS011;9269;50.838;12.094;2023-09-07T13:03:19;3.80;;;3.40;;
18286;SDS011;9269;50.838;12.094;2023-09-07T13:05:48;3.53;;;3.23;;
18286;SDS011;9269;50.838;12.094;2023-09-07T13:08:19;4.73;;;3.70;;
18286;SDS011;9269;50.838;12.094;2023-09-07T13:10:49;4.10;;;3.70;;
18286;SDS011;9269;50.838;12.094;2023-09-07T13:13:19;3.90;;;3.60;;
18286;SDS011;9269;50.838;12.094;2023-09-07T13:15:49;3.73;;;3.43;;
18286;SDS011;9269;50.838;12.094;2023-09-07T13:18:18;4.10;;;3.70;;
18286;SDS011;9269;50.838;12.094;2023-09-07T13:20:47;4.43;;;3.37;;
18286;SDS011;9269;50.838;12.094;2023-09-07T13:23:20;4.00;;;3.70;;
18286;SDS011;9269;50.838;12.094;2023-09-07T13:25:48;4.10;;;3.70;;
18286;SDS011;9269;50.838;12.094;2023-09-07T13:28:17;4.07;;;3.77;;
18286;SDS011;9269;50.838;12.094;2023-09-07T13:30:46;3.80;;;3.50;;
18286;SDS011;9269;50.838;12.094;2023-09-07T13:33:14;6.40;;;4.00;;
18286;SDS011;9269;50.838;12.094;2023-09-07T13:35:44;4.23;;;3.77;;
18286;SDS011;9269;50.838;12.094;2023-09-07T13:38:13;3.87;;;3.57;;
18286;SDS011;9269;50.838;12.094;2023-09-07T13:40:42;3.90;;;3.60;;
18286;SDS011;9269;50.838;12.094;2023-09-07T13:43:11;3.77;;;3.47;;
18286;SDS011;9269;50.838;12.094;2023-09-07T13:45:39;3.33;;;3.03;;
18286;SDS011;9269;50.838;12.094;2023-09-07T13:48:08;3.93;;;3.60;;
18286;SDS011;9269;50.838;12.094;2023-09-07T13:50:37;3.47;;;3.17;;
18286;SDS011;9269;50.838;12.094;2023-09-07T13:53:05;3.50;;;3.20;;
18286;SDS011;9269;50.838;12.094;2023-09-07T13:55:34;3.70;;;3.40;;
18286;SDS011;9269;50.838;12.094;2023-09-07T13:58:08;3.87;;;3.57;;
18286;SDS011;9269;50.838;12.094;2023-09-07T14:00:36;3.80;;;3.43;;
18286;SDS011;9269;50.838;12.094;2023-09-07T14:03:05;3.83;;;3.53;;
18286;SDS011;9269;50.838;12.094;2023-09-07T14:05:34;3.53;;;3.33;;
18286;SDS011;9269;50.838;12.094;2023-09-07T14:08:03;3.80;;;3.37;;
18286;SDS011;9269;50.838;12.094;2023-09-07T14:10:32;3.47;;;3.20;;
18286;SDS011;9269;50.838;12.094;2023-09-07T14:13:01;4.00;;;3.60;;
18286;SDS011;9269;50.838;12.094;2023-09-07T14:15:31;3.33;;;3.03;;
18286;SDS011;9269;50.838;12.094;2023-09-07T14:18:00;3.50;;;3.20;;
18286;SDS011;9269;50.838;12.094;2023-09-07T14:20:30;4.43;;;3.33;;
18286;SDS011;9269;50.838;12.094;2023-09-07T14:22:58;3.33;;;3.03;;
18286;SDS011;9269;50.838;12.094;2023-09-07T14:25:32;3.43;;;2.87;;
18286;SDS011;9269;50.838;12.094;2023-09-07T14:28:01;3.23;;;3.00;;
18286;SDS011;9269;50.838;12.094;2023-09-07T14:30:31;3.60;;;3.30;;
18286;SDS011;9269;50.838;12.094;2023-09-07T14:33:00;3.87;;;3.50;;
18286;SDS011;9269;50.838;12.094;2023-09-07T14:35:28;3.63;;;3.40;;
18286;SDS011;9269;50.838;12.094;2023-09-07T14:37:57;3.07;;;2.87;;
18286;SDS011;9269;50.838;12.094;2023-09-07T14:40:27;3.83;;;3.40;;
18286;SDS011;9269;50.838;12.094;2023-09-07T14:42:56;3.57;;;3.27;;
18286;SDS011;9269;50.838;12.094;2023-09-07T14:45:25;3.73;;;3.40;;
18286;SDS011;9269;50.838;12.094;2023-09-07T14:47:55;4.40;;;4.00;;
18286;SDS011;9269;50.838;12.094;2023-09-07T14:50:23;3.73;;;3.43;;
18286;SDS011;9269;50.838;12.094;2023-09-07T14:52:52;5.90;;;3.63;;
18286;SDS011;9269;50.838;12.094;2023-09-07T14:55:21;4.17;;;3.33;;
18286;SDS011;9269;50.838;12.094;2023-09-07T14:57:50;3.80;;;3.50;;
18286;SDS011;9269;50.838;12.094;2023-09-07T15:00:18;3.93;;;3.63;;
18286;SDS011;9269;50.838;12.094;2023-09-07T15:02:49;3.70;;;3.40;;
18286;SDS011;9269;50.838;12.094;2023-09-07T15:05:21;3.70;;;3.40;;
18286;SDS011;9269;50.838;12.094;2023-09-07T15:07:51;4.13;;;3.83;;